createdAt,value
2019-06-20T20:00:25.841Z,83.34
2019-06-20T20:02:54.656Z,79.47
2019-06-20T20:05:23.341Z,80.26
2019-06-20T20:07:51.873Z,79.95
2019-06-20T20:10:23.882Z,80.14
2019-06-20T20:12:52.920Z,79.89
2019-06-20T20:15:21.658Z,79.69
2019-06-20T20:17:50.526Z,79.92
2019-06-20T20:20:19.022Z,80.02
2019-06-20T20:22:47.470Z,79.64
2019-06-20T20:25:16.154Z,79.85
2019-06-20T20:27:45.027Z,79.69
2019-06-20T20:30:14.896Z,79.44
2019-06-20T20:32:43.293Z,79.43
2019-06-20T20:35:12.388Z,79.23
2019-06-20T20:37:40.820Z,79.23
2019-06-20T20:40:10.327Z,78.93
2019-06-20T20:42:39.151Z,78.56
2019-06-20T20:45:07.913Z,78.50
2019-06-20T20:47:37.787Z,78.40
2019-06-20T20:50:06.277Z,78.23
2019-06-20T20:52:35.026Z,78.31
2019-06-20T20:55:03.684Z,78.29
2019-06-20T20:57:32.426Z,78.11
2019-06-20T21:00:01.431Z,78.21
2019-06-20T21:02:33.029Z,78.10
2019-06-20T21:05:02.019Z,78.11
2019-06-20T21:07:30.393Z,78.12
2019-06-20T21:09:59.118Z,78.02
2019-06-20T21:12:27.544Z,78.10
2019-06-20T21:14:55.987Z,78.23
2019-06-20T21:17:24.365Z,78.09
2019-06-20T21:19:52.975Z,77.83
2019-06-20T21:22:23.033Z,78.01
2019-06-20T21:24:51.728Z,77.63
2019-06-20T21:27:20.947Z,77.29
2019-06-20T21:29:49.548Z,77.44
2019-06-20T21:32:18.365Z,77.36
2019-06-20T21:34:46.716Z,77.42
2019-06-20T21:37:14.980Z,77.42
2019-06-20T21:39:44.216Z,77.05
2019-06-20T21:42:13.453Z,77.00
2019-06-20T21:44:43.041Z,76.75
2019-06-20T21:47:11.740Z,76.53
2019-06-20T21:53:27.075Z,75.93
2019-06-20T21:55:56.085Z,75.75
2019-06-20T21:58:26.032Z,75.60
2019-06-20T22:00:56.147Z,75.47
2019-06-20T22:03:25.242Z,75.38
2019-06-20T22:05:53.725Z,75.27
2019-06-20T22:08:22.169Z,75.20
2019-06-20T22:10:51.377Z,75.12
2019-06-20T22:13:19.790Z,75.08
2019-06-20T22:15:51.381Z,75.06
2019-06-20T22:18:19.822Z,74.95
2019-06-20T22:20:48.776Z,74.86
2019-06-20T22:23:17.142Z,74.74
2019-06-20T22:25:45.552Z,74.69
2019-06-20T22:30:39.542Z,74.46
2019-06-20T22:33:08.351Z,74.30
2019-06-20T22:35:36.803Z,74.29
2019-06-20T22:38:05.621Z,74.26
2019-06-20T22:40:34.142Z,74.17
2019-06-20T22:43:03.134Z,74.13
2019-06-20T22:45:32.060Z,74.06
2019-06-20T22:48:00.683Z,74.05
2019-06-20T22:50:29.791Z,73.98
2019-06-20T22:52:58.387Z,73.84
2019-06-20T22:55:27.649Z,73.80
2019-06-20T22:57:56.223Z,73.76
2019-06-20T23:00:25.673Z,73.62
2019-06-20T23:02:53.911Z,73.65
2019-06-20T23:05:22.247Z,73.68
2019-06-20T23:07:50.645Z,73.62
2019-06-20T23:10:19.006Z,73.65
2019-06-20T23:12:47.631Z,73.67
2019-06-20T23:15:36.221Z,73.53
2019-06-20T23:18:04.775Z,73.54
2019-06-20T23:20:33.387Z,73.50
2019-06-20T23:23:03.287Z,73.49
2019-06-20T23:25:32.118Z,73.47
2019-06-20T23:28:01.161Z,73.50
2019-06-20T23:30:29.541Z,73.43
2019-06-20T23:32:58.938Z,73.25
2019-06-20T23:35:27.315Z,73.24
2019-06-20T23:37:56.213Z,73.17
2019-06-20T23:40:24.913Z,73.17
2019-06-20T23:42:53.487Z,73.20
2019-06-20T23:45:21.727Z,73.08
2019-06-20T23:47:50.351Z,73.15
2019-06-20T23:50:19.369Z,73.20
2019-06-20T23:52:52.135Z,73.12
2019-06-20T23:55:21.028Z,73.18
2019-06-20T23:57:52.784Z,73.10
